createdAt,value
2018-02-23T00:00:54.780Z,57.20
2018-02-23T00:03:25.253Z,57.20
2018-02-23T00:05:55.450Z,57.00
2018-02-23T00:08:25.766Z,57.10
2018-02-23T00:10:56.627Z,57.20
2018-02-23T00:13:27.534Z,57.90
2018-02-23T00:15:57.631Z,57.80
2018-02-23T00:18:29.117Z,57.80
2018-02-23T00:20:59.239Z,57.90
2018-02-23T00:23:29.380Z,58.20
2018-02-23T00:26:00.023Z,58.50
2018-02-23T00:28:30.124Z,58.80
2018-02-23T00:31:01.059Z,58.80
2018-02-23T00:33:32.331Z,58.90
2018-02-23T00:36:02.525Z,57.80
2018-02-23T00:38:32.727Z,58.60
2018-02-23T00:41:03.305Z,58.40
2018-02-23T00:43:33.511Z,58.40
2018-02-23T00:46:05.030Z,58.40
2018-02-23T00:48:36.021Z,58.40
2018-02-23T00:51:06.217Z,58.30
2018-02-23T00:53:37.120Z,59.00
2018-02-23T00:56:08.971Z,58.30
2018-02-23T00:58:40.044Z,58.50
2018-02-23T01:01:10.656Z,58.50
2018-02-23T01:03:40.878Z,58.60
2018-02-23T01:06:10.908Z,58.40
2018-02-23T01:08:44.364Z,58.60
2018-02-23T01:11:14.462Z,59.00
2018-02-23T01:13:45.364Z,59.20
2018-02-23T01:16:15.530Z,59.10
2018-02-23T01:18:45.768Z,59.40
2018-02-23T01:21:16.320Z,59.40
2018-02-23T01:23:46.491Z,59.30
2018-02-23T01:26:16.647Z,59.00
2018-02-23T01:28:47.180Z,59.10
2018-02-23T01:31:17.415Z,59.10
2018-02-23T01:33:47.724Z,58.90
2018-02-23T01:36:18.256Z,58.60
2018-02-23T01:38:49.205Z,58.60
2018-02-23T01:44:02.018Z,58.70
2018-02-23T01:46:35.305Z,58.60
2018-02-23T01:49:05.443Z,58.80
2018-02-23T01:51:35.665Z,58.70
2018-02-23T01:54:05.953Z,58.70
2018-02-23T01:56:36.831Z,58.90
2018-02-23T01:59:06.973Z,58.80
2018-02-23T02:01:37.136Z,58.70
2018-02-23T02:04:07.620Z,58.70
2018-02-23T02:06:38.293Z,58.80
2018-02-23T02:09:08.412Z,59.00
2018-02-23T02:11:38.642Z,58.90
2018-02-23T02:14:09.925Z,58.60
2018-02-23T02:16:40.882Z,58.80
2018-02-23T02:19:11.043Z,58.80
2018-02-23T02:21:42.573Z,58.90
2018-02-23T02:24:13.484Z,59.10
2018-02-23T02:26:43.654Z,59.10
2018-02-23T02:29:14.245Z,59.30
2018-02-23T02:31:44.424Z,59.40
2018-02-23T02:34:14.743Z,59.40
2018-02-23T02:36:45.019Z,59.20
2018-02-23T02:39:15.134Z,59.30
2018-02-23T02:41:45.372Z,59.20
2018-02-23T02:44:16.738Z,59.40
2018-02-23T02:46:47.097Z,59.40
2018-02-23T02:49:17.226Z,59.50
2018-02-23T02:51:47.792Z,59.60
2018-02-23T02:54:18.184Z,59.70
2018-02-23T02:56:48.334Z,60.00
2018-02-23T02:59:19.061Z,59.90
2018-02-23T03:01:49.250Z,59.90
2018-02-23T03:04:19.360Z,60.40
2018-02-23T03:06:49.908Z,60.80
2018-02-23T03:09:20.089Z,60.70
2018-02-23T03:11:50.315Z,60.60
2018-02-23T03:14:20.912Z,60.20
2018-02-23T03:16:51.070Z,60.10
2018-02-23T03:19:21.323Z,60.10
2018-02-23T03:21:51.956Z,60.00
2018-02-23T03:24:22.269Z,59.90
2018-02-23T03:26:52.581Z,59.70
2018-02-23T03:29:22.980Z,59.70
2018-02-23T03:31:54.416Z,59.80
2018-02-23T03:34:24.941Z,59.80
2018-02-23T03:36:55.276Z,59.70
2018-02-23T03:39:25.405Z,59.80
2018-02-23T03:41:56.261Z,60.00
2018-02-23T03:44:26.428Z,59.80
2018-02-23T03:46:56.553Z,59.80
2018-02-23T03:49:27.147Z,59.80
2018-02-23T03:51:57.344Z,59.90
2018-02-23T03:54:28.356Z,59.90
2018-02-23T03:56:59.221Z,59.90
2018-02-23T03:59:30.162Z,59.60
2018-02-23T04:02:00.284Z,59.60
2018-02-23T04:04:30.944Z,59.50
2018-02-23T04:07:01.180Z,59.40
2018-02-23T04:09:31.412Z,61.00
2018-02-23T04:12:01.641Z,59.50
2018-02-23T04:14:31.805Z,59.50
2018-02-23T04:17:02.779Z,60.10
2018-02-23T04:19:33.096Z,60.10
2018-02-23T04:22:03.460Z,60.00
2018-02-23T04:24:34.172Z,60.00
2018-02-23T04:27:04.454Z,59.70
2018-02-23T04:29:34.695Z,59.70
2018-02-23T04:32:05.339Z,59.60
2018-02-23T04:34:35.428Z,59.50
2018-02-23T04:37:05.604Z,59.40
2018-02-23T04:39:36.288Z,59.60
2018-02-23T04:42:06.520Z,59.80
2018-02-23T04:44:36.672Z,59.60
2018-02-23T04:47:07.189Z,59.40
2018-02-23T04:49:37.473Z,59.60
2018-02-23T04:52:07.684Z,59.70
2018-02-23T04:54:38.334Z,59.60
2018-02-23T04:57:08.565Z,59.50
2018-02-23T04:59:39.498Z,59.20
2018-02-23T05:02:11.457Z,59.20
2018-02-23T05:04:41.598Z,59.20
2018-02-23T05:07:11.910Z,59.20
2018-02-23T05:09:43.338Z,59.50
2018-02-23T05:12:14.351Z,59.20
2018-02-23T05:14:44.611Z,59.20
2018-02-23T05:17:14.904Z,59.70
2018-02-23T05:19:45.243Z,59.70
2018-02-23T05:22:16.596Z,59.50
2018-02-23T05:24:47.875Z,59.30
2018-02-23T05:27:18.048Z,59.30
2018-02-23T05:29:49.702Z,59.30
2018-02-23T05:32:20.640Z,59.40
2018-02-23T05:34:51.847Z,60.10
2018-02-23T05:37:22.443Z,59.20
2018-02-23T05:39:52.691Z,60.60
2018-02-23T05:42:22.880Z,59.20
2018-02-23T05:44:53.575Z,59.20
2018-02-23T05:47:24.393Z,59.20
2018-02-23T05:49:55.181Z,60.10
2018-02-23T05:52:25.413Z,59.50
2018-02-23T05:54:55.636Z,59.40
2018-02-23T05:57:26.221Z,59.20
2018-02-23T05:59:57.556Z,60.00
2018-02-23T06:02:27.801Z,59.20
2018-02-23T06:15:03.038Z,59.70
2018-02-23T06:17:37.203Z,59.80
2018-02-23T06:20:09.501Z,59.90
2018-02-23T06:22:58.174Z,60.00
2018-02-23T06:28:28.100Z,60.00
2018-02-23T06:31:00.464Z,60.30
2018-02-23T06:33:31.392Z,60.10
2018-02-23T06:36:02.265Z,60.10
2018-02-23T06:38:32.506Z,60.10
2018-02-23T06:41:07.044Z,59.90
2018-02-23T06:43:37.045Z,60.40
2018-02-23T06:46:07.602Z,60.70
2018-02-23T06:48:38.064Z,60.50
2018-02-23T06:51:09.522Z,60.80
2018-02-23T06:53:41.435Z,60.40
2018-02-23T06:56:15.963Z,60.30
2018-02-23T06:58:46.977Z,60.50
2018-02-23T07:01:17.474Z,60.40
2018-02-23T07:03:48.469Z,61.90
2018-02-23T07:06:18.677Z,61.90
2018-02-23T07:08:48.928Z,62.30
2018-02-23T07:11:21.680Z,62.50
2018-02-23T07:13:54.211Z,62.10
2018-02-23T07:16:29.510Z,62.00
2018-02-23T07:19:05.416Z,61.50
2018-02-23T07:21:36.249Z,61.10
2018-02-23T07:24:07.247Z,61.70
2018-02-23T07:27:04.183Z,61.70
2018-02-23T07:29:34.514Z,62.30
2018-02-23T07:32:05.891Z,62.30
2018-02-23T07:34:36.040Z,61.50
2018-02-23T07:37:10.210Z,60.90
2018-02-23T07:39:40.429Z,60.60
2018-02-23T07:42:15.612Z,59.90
2018-02-23T07:44:46.353Z,59.80
2018-02-23T07:47:18.228Z,59.90
2018-02-23T07:49:49.187Z,57.40
2018-02-23T07:52:19.995Z,57.50
2018-02-23T07:54:50.309Z,58.00
2018-02-23T07:57:20.756Z,57.70
2018-02-23T07:59:51.071Z,55.60
2018-02-23T08:02:21.183Z,55.80
2018-02-23T08:04:51.106Z,53.90
2018-02-23T08:07:21.296Z,53.60
2018-02-23T08:09:52.435Z,53.20
2018-02-23T08:12:23.213Z,53.20
2018-02-23T08:14:54.346Z,52.50
2018-02-23T08:17:24.525Z,52.50
2018-02-23T08:19:58.028Z,52.20
2018-02-23T08:22:28.385Z,51.80
2018-02-23T08:25:00.659Z,51.50
2018-02-23T08:27:30.909Z,51.20
2018-02-23T08:30:06.621Z,51.10
2018-02-23T08:32:37.959Z,50.10
2018-02-23T08:35:09.055Z,49.20
2018-02-23T08:37:39.311Z,49.70
2018-02-23T08:40:09.969Z,49.90
2018-02-23T08:42:40.276Z,48.80
2018-02-23T08:45:14.146Z,49.00
2018-02-23T08:47:44.480Z,48.50
2018-02-23T08:50:17.702Z,48.00
2018-02-23T08:52:51.172Z,48.30
2018-02-23T08:55:22.353Z,48.20
2018-02-23T08:57:53.592Z,47.60
2018-02-23T09:00:29.154Z,48.00
2018-02-23T09:02:59.312Z,48.00
2018-02-23T09:05:29.540Z,47.10
2018-02-23T09:07:59.581Z,46.70
2018-02-23T09:10:30.464Z,47.10
2018-02-23T09:13:01.113Z,47.30
2018-02-23T09:15:31.494Z,46.50
2018-02-23T09:18:02.736Z,46.60
2018-02-23T09:20:33.723Z,46.00
2018-02-23T09:23:11.329Z,45.90
2018-02-23T09:25:41.791Z,46.10
2018-02-23T09:28:12.303Z,46.60
2018-02-23T09:30:43.084Z,45.70
2018-02-23T09:33:13.706Z,44.70
2018-02-23T09:35:48.290Z,44.70
2018-02-23T09:38:24.218Z,44.70
2018-02-23T09:41:06.873Z,44.50
2018-02-23T09:43:41.520Z,44.30
2018-02-23T09:46:16.452Z,44.80
2018-02-23T09:48:47.731Z,43.80
2018-02-23T09:51:18.191Z,43.80
2018-02-23T09:53:48.911Z,43.80
2018-02-23T09:56:21.299Z,43.50
2018-02-23T09:58:54.443Z,43.10
2018-02-23T10:01:29.587Z,44.00
2018-02-23T10:04:00.012Z,43.90
2018-02-23T10:06:35.051Z,43.30
2018-02-23T10:09:09.782Z,42.90
2018-02-23T10:11:44.668Z,42.50
2018-02-23T10:14:16.959Z,42.70
2018-02-23T10:16:47.346Z,42.60
2018-02-23T10:19:21.854Z,42.00
2018-02-23T10:21:57.528Z,41.90
2018-02-23T10:24:28.026Z,42.20
2018-02-23T10:27:00.021Z,42.40
2018-02-23T10:29:34.803Z,42.90
2018-02-23T10:32:05.909Z,42.00
2018-02-23T10:34:40.639Z,41.40
2018-02-23T10:37:13.492Z,40.30
2018-02-23T10:39:44.291Z,40.30
2018-02-23T10:42:17.615Z,40.00
2018-02-23T10:44:48.543Z,40.50
2018-02-23T10:47:23.014Z,40.70
2018-02-23T10:49:56.579Z,41.00
2018-02-23T10:52:29.401Z,41.00
2018-02-23T10:55:02.029Z,40.00
2018-02-23T10:57:32.330Z,40.10
2018-02-23T11:00:16.636Z,39.60
2018-02-23T11:02:49.039Z,39.50
2018-02-23T11:05:23.957Z,38.80
2018-02-23T11:07:57.032Z,39.20
2018-02-23T11:10:35.745Z,39.20
2018-02-23T11:13:06.635Z,38.40
2018-02-23T11:15:38.163Z,38.40
2018-02-23T11:18:10.439Z,38.20
2018-02-23T11:20:40.626Z,38.20
2018-02-23T11:23:10.684Z,38.10
2018-02-23T11:25:41.551Z,38.40
2018-02-23T11:28:12.341Z,38.40
2018-02-23T11:30:43.086Z,39.00
2018-02-23T11:33:14.102Z,37.90
2018-02-23T11:35:45.155Z,37.80
2018-02-23T11:38:41.928Z,38.60
2018-02-23T11:41:27.485Z,38.20
2018-02-23T11:44:01.508Z,37.20
2018-02-23T11:46:32.518Z,36.80
2018-02-23T11:49:02.818Z,36.80
2018-02-23T11:51:33.206Z,37.00
2018-02-23T11:54:03.425Z,36.60
2018-02-23T11:56:49.532Z,36.20
2018-02-23T11:59:33.430Z,36.80
2018-02-23T12:02:17.998Z,36.30
2018-02-23T12:04:52.765Z,37.20
2018-02-23T12:07:27.692Z,37.20
2018-02-23T12:09:59.312Z,36.90
2018-02-23T12:12:35.095Z,36.90
2018-02-23T12:15:05.494Z,36.90
2018-02-23T12:17:40.265Z,35.40
2018-02-23T12:20:11.307Z,36.20
2018-02-23T12:22:41.347Z,36.90
2018-02-23T12:25:17.783Z,36.50
2018-02-23T12:27:49.523Z,36.50
2018-02-23T12:30:19.834Z,36.60
2018-02-23T12:32:51.032Z,36.40
2018-02-23T12:35:21.179Z,36.40
2018-02-23T12:37:52.126Z,36.00
2018-02-23T12:40:23.191Z,36.00
2018-02-23T12:42:55.331Z,35.20
2018-02-23T12:45:26.053Z,35.20
2018-02-23T12:47:57.072Z,35.20
2018-02-23T12:50:27.441Z,33.70
2018-02-23T12:52:58.743Z,35.40
2018-02-23T12:55:29.147Z,35.40
2018-02-23T12:57:59.737Z,35.80
2018-02-23T13:00:30.451Z,35.30
2018-02-23T13:03:02.314Z,35.70
2018-02-23T13:05:33.769Z,35.40
2018-02-23T13:08:04.057Z,37.10
2018-02-23T13:10:40.699Z,35.50
2018-02-23T13:13:11.772Z,36.20
2018-02-23T13:15:41.923Z,36.20
2018-02-23T13:18:12.529Z,36.50
2018-02-23T13:20:44.402Z,36.40
2018-02-23T13:23:15.333Z,36.60
2018-02-23T13:25:47.078Z,36.50
2018-02-23T13:28:22.286Z,37.50
2018-02-23T13:30:54.783Z,36.80
2018-02-23T13:33:25.794Z,36.80
2018-02-23T13:36:00.650Z,36.90
2018-02-23T13:38:33.283Z,36.90
2018-02-23T13:41:09.289Z,36.80
2018-02-23T13:43:40.455Z,36.80
2018-02-23T13:46:12.717Z,37.00
2018-02-23T13:48:43.873Z,36.60
2018-02-23T13:51:16.983Z,36.70
2018-02-23T13:54:07.390Z,36.70
2018-02-23T13:56:38.594Z,36.70
2018-02-23T13:59:09.996Z,37.00
2018-02-23T14:01:41.230Z,36.60
2018-02-23T14:04:12.058Z,36.30
2018-02-23T14:06:48.783Z,36.30
2018-02-23T14:09:23.684Z,35.60
2018-02-23T14:11:55.221Z,36.40
2018-02-23T14:14:27.558Z,35.60
2018-02-23T14:16:58.467Z,35.80
2018-02-23T14:19:30.592Z,35.90
2018-02-23T14:22:03.761Z,35.90
2018-02-23T14:24:34.698Z,35.50
2018-02-23T14:27:06.502Z,35.30
2018-02-23T14:29:38.318Z,35.80
2018-02-23T14:32:09.304Z,35.90
2018-02-23T14:34:41.060Z,36.40
2018-02-23T14:37:12.617Z,36.30
2018-02-23T14:39:44.994Z,36.50
2018-02-23T14:42:18.259Z,35.30
2018-02-23T14:44:49.233Z,35.40
2018-02-23T14:47:20.958Z,35.20
2018-02-23T14:50:00.100Z,35.20
2018-02-23T14:52:34.592Z,34.90
2018-02-23T14:55:05.973Z,34.80
2018-02-23T14:57:37.597Z,34.50
2018-02-23T15:00:11.266Z,34.40
2018-02-23T15:02:42.991Z,34.50
2018-02-23T15:05:14.751Z,34.80
2018-02-23T15:07:50.963Z,34.00
2018-02-23T15:10:21.984Z,33.90
2018-02-23T15:12:52.817Z,33.90
2018-02-23T15:15:23.724Z,34.30
2018-02-23T15:17:56.596Z,33.90
2018-02-23T15:20:27.931Z,33.90
2018-02-23T15:22:58.855Z,33.20
2018-02-23T15:25:31.058Z,32.90
2018-02-23T15:28:03.665Z,32.70
2018-02-23T15:30:44.358Z,31.80
2018-02-23T15:33:15.912Z,32.10
2018-02-23T15:35:46.956Z,32.30
2018-02-23T15:38:18.083Z,32.70
2018-02-23T15:40:48.968Z,32.80
2018-02-23T15:43:20.193Z,32.50
2018-02-23T15:45:51.208Z,32.10
2018-02-23T15:48:22.394Z,32.50
2018-02-23T15:50:53.644Z,32.00
2018-02-23T15:53:24.537Z,32.00
2018-02-23T15:55:57.783Z,32.40
2018-02-23T15:58:28.939Z,32.60
2018-02-23T16:01:02.296Z,32.40
2018-02-23T16:03:36.441Z,32.40
2018-02-23T16:06:07.983Z,32.70
2018-02-23T16:08:39.755Z,32.80
2018-02-23T16:11:11.529Z,32.90
2018-02-23T16:13:44.870Z,32.90
2018-02-23T16:16:16.181Z,32.90
2018-02-23T16:18:47.249Z,33.10
2018-02-23T16:21:17.797Z,32.90
2018-02-23T16:23:48.989Z,33.60
2018-02-23T16:26:22.042Z,32.20
2018-02-23T16:28:52.728Z,32.30
2018-02-23T16:31:35.936Z,32.10
2018-02-23T16:34:10.569Z,31.80
2018-02-23T16:36:43.014Z,31.90
2018-02-23T16:39:14.408Z,31.90
2018-02-23T16:41:45.233Z,31.80
2018-02-23T16:44:16.565Z,31.90
2018-02-23T16:46:49.091Z,31.70
2018-02-23T16:49:19.995Z,32.00
2018-02-23T16:51:51.325Z,32.00
2018-02-23T16:54:22.832Z,32.10
2018-02-23T16:56:55.136Z,32.10
2018-02-23T16:59:27.662Z,32.70
2018-02-23T17:01:58.532Z,32.60
2018-02-23T17:04:30.297Z,32.80
2018-02-23T17:07:00.826Z,32.70
2018-02-23T17:09:34.271Z,32.90
2018-02-23T17:12:04.831Z,33.10
2018-02-23T17:14:35.555Z,33.90
2018-02-23T17:17:06.217Z,33.50
2018-02-23T17:19:39.353Z,34.80
2018-02-23T17:22:10.903Z,33.60
2018-02-23T17:24:46.890Z,33.80
2018-02-23T17:27:17.704Z,33.90
2018-02-23T17:29:48.399Z,33.70
2018-02-23T17:32:20.925Z,34.20
2018-02-23T17:34:52.727Z,34.20
2018-02-23T17:40:00.450Z,34.40
2018-02-23T17:42:31.925Z,35.00
2018-02-23T17:45:02.685Z,34.40
2018-02-23T17:47:33.373Z,34.50
2018-02-23T17:50:04.027Z,34.40
2018-02-23T17:52:34.790Z,34.10
2018-02-23T17:55:05.883Z,34.10
2018-02-23T17:57:37.357Z,34.20
2018-02-23T18:00:10.093Z,34.20
2018-02-23T18:02:40.895Z,34.30
2018-02-23T18:06:30.699Z,34.60
2018-02-23T18:09:01.655Z,34.40
2018-02-23T18:11:32.489Z,34.50
2018-02-23T18:14:04.800Z,34.40
2018-02-23T18:16:36.155Z,34.60
2018-02-23T18:19:07.043Z,34.60
2018-02-23T18:21:37.740Z,34.60
2018-02-23T18:24:09.259Z,34.60
2018-02-23T18:26:41.217Z,34.70
2018-02-23T18:29:12.759Z,34.80
2018-02-23T18:31:43.485Z,34.80
2018-02-23T18:34:14.361Z,34.90
2018-02-23T18:36:46.785Z,34.90
2018-02-23T18:39:17.923Z,35.00
2018-02-23T18:41:48.634Z,34.70
2018-02-23T18:44:19.329Z,34.90
2018-02-23T18:46:54.253Z,34.70
2018-02-23T18:49:24.794Z,34.70
2018-02-23T18:51:58.217Z,34.90
2018-02-23T18:54:28.922Z,34.90
2018-02-23T18:57:00.239Z,34.60
2018-02-23T18:59:31.807Z,34.50
2018-02-23T19:02:02.331Z,34.60
2018-02-23T19:04:34.426Z,34.90
2018-02-23T19:07:07.795Z,35.10
2018-02-23T19:09:39.902Z,35.10
2018-02-23T19:12:11.149Z,35.90
2018-02-23T19:14:42.105Z,35.10
2018-02-23T19:17:13.103Z,36.90
2018-02-23T19:19:46.756Z,38.70
2018-02-23T19:22:17.432Z,38.50
2018-02-23T19:24:49.005Z,39.10
2018-02-23T19:27:20.730Z,39.20
2018-02-23T19:29:51.386Z,39.20
2018-02-23T19:32:22.843Z,40.20
2018-02-23T19:34:54.404Z,41.00
2018-02-23T19:37:24.940Z,41.00
2018-02-23T19:39:55.964Z,41.00
2018-02-23T19:42:28.111Z,41.80
2018-02-23T19:44:58.942Z,41.80
2018-02-23T19:47:29.695Z,41.90
2018-02-23T19:50:01.372Z,37.60
2018-02-23T19:52:33.284Z,37.60
2018-02-23T19:55:03.874Z,38.90
2018-02-23T19:57:35.402Z,39.70
2018-02-23T20:00:06.447Z,39.50
2018-02-23T20:02:38.143Z,39.90
2018-02-23T20:05:09.418Z,41.30
2018-02-23T20:07:40.172Z,41.30
2018-02-23T20:10:11.658Z,39.90
2018-02-23T20:12:42.684Z,39.90
2018-02-23T20:15:13.359Z,39.60
2018-02-23T20:17:47.063Z,39.70
2018-02-23T20:20:18.114Z,39.00
2018-02-23T20:22:48.902Z,39.20
2018-02-23T20:26:44.019Z,40.30
2018-02-23T20:29:20.700Z,40.00
2018-02-23T20:31:51.845Z,40.60
2018-02-23T20:34:23.652Z,38.20
2018-02-23T20:36:55.731Z,36.20
2018-02-23T20:39:27.544Z,36.20
2018-02-23T20:41:58.348Z,36.10
2018-02-23T20:44:30.665Z,38.20
2018-02-23T20:47:01.435Z,37.20
2018-02-23T20:49:34.605Z,37.00
2018-02-23T20:52:23.330Z,37.00
2018-02-23T20:55:07.654Z,38.10
2018-02-23T20:57:40.845Z,39.90
2018-02-23T21:00:28.458Z,40.20
2018-02-23T21:03:00.311Z,38.80
2018-02-23T21:05:44.010Z,39.10
2018-02-23T21:08:30.677Z,39.00
2018-02-23T21:11:01.803Z,39.60
2018-02-23T21:13:33.401Z,40.00
2018-02-23T21:16:05.440Z,40.10
2018-02-23T21:18:37.231Z,40.10
2018-02-23T21:21:08.931Z,40.10
2018-02-23T21:23:39.880Z,40.00
2018-02-23T21:26:11.584Z,40.00
2018-02-23T21:28:43.493Z,39.70
2018-02-23T21:31:16.100Z,41.40
2018-02-23T21:33:59.920Z,41.70
2018-02-23T21:36:31.853Z,39.30
2018-02-23T21:39:04.030Z,39.30
2018-02-23T21:41:43.262Z,39.50
2018-02-23T21:44:17.436Z,40.40
2018-02-23T21:46:48.746Z,41.00
2018-02-23T21:49:22.654Z,41.20
2018-02-23T21:52:07.602Z,41.00
2018-02-23T21:54:38.587Z,41.00
2018-02-23T21:57:10.229Z,41.30
2018-02-23T21:59:42.021Z,41.40
2018-02-23T22:02:13.873Z,41.50
2018-02-23T22:04:45.255Z,41.90
2018-02-23T22:07:15.933Z,42.20
2018-02-23T22:09:46.833Z,42.20
2018-02-23T22:12:18.110Z,42.20
2018-02-23T22:14:48.965Z,42.20
2018-02-23T22:17:21.163Z,42.50
2018-02-23T22:19:52.214Z,43.10
2018-02-23T22:22:23.000Z,43.50
2018-02-23T22:25:08.242Z,41.20
2018-02-23T22:27:42.803Z,42.10
2018-02-23T22:30:16.378Z,43.00
2018-02-23T22:32:49.806Z,43.30
2018-02-23T22:35:22.001Z,43.30
2018-02-23T22:37:53.054Z,43.40
2018-02-23T22:40:24.262Z,43.40
2018-02-23T22:42:55.359Z,44.40
2018-02-23T22:45:26.187Z,44.40
2018-02-23T22:47:57.623Z,44.40
2018-02-23T22:50:29.413Z,44.40
2018-02-23T22:53:01.116Z,44.70
2018-02-23T22:55:32.465Z,44.60
2018-02-23T22:58:03.390Z,44.70
2018-02-23T23:00:34.794Z,44.90
2018-02-23T23:03:06.149Z,45.30
2018-02-23T23:05:37.742Z,45.60
2018-02-23T23:08:08.951Z,44.40
2018-02-23T23:10:40.665Z,45.70
2018-02-23T23:13:11.717Z,45.70
2018-02-23T23:15:42.620Z,45.40
2018-02-23T23:18:13.981Z,45.50
2018-02-23T23:20:45.071Z,45.40
2018-02-23T23:23:16.060Z,45.00
2018-02-23T23:25:47.422Z,45.40
2018-02-23T23:28:18.966Z,45.30
2018-02-23T23:30:49.920Z,45.20
2018-02-23T23:33:21.256Z,45.50
2018-02-23T23:35:52.381Z,45.00
2018-02-23T23:38:23.518Z,45.10
2018-02-23T23:40:54.865Z,45.60
2018-02-23T23:43:30.882Z,46.10
2018-02-23T23:46:02.067Z,46.50
2018-02-23T23:48:33.131Z,46.40
2018-02-23T23:51:04.256Z,46.40
2018-02-23T23:53:35.750Z,46.80
2018-02-23T23:58:52.545Z,46.60
